Time;durP1;ratioP1;P1;durP2;ratioP2;P2;SDS_P1;SDS_P2;PMS_P1;PMS_P2;Temp;Humidity;BMP_temperature;BMP_pressure;BME280_temperature;BME280_humidity;BME280_pressure;Samples;Min_cycle;Max_cycle;Signal;HPM_P1;HPM_P2
2023/08/26 00:00:36;;;;;;;8.63;6.30;;;18.50;99.90;;;;;;4983934;28;20052;-77
2023/08/26 00:03:02;;;;;;;10.75;5.75;;;18.50;99.90;;;;;;5017408;28;20513;-77
2023/08/26 00:05:28;;;;;;;9.82;5.68;;;18.50;99.90;;;;;;4983598;28;20045;-77
2023/08/26 00:07:54;;;;;;;10.30;6.15;;;18.40;99.90;;;;;;4983622;28;20026;-76
2023/08/26 00:10:19;;;;;;;9.38;5.28;;;18.40;99.90;;;;;;4983558;28;20076;-78
2023/08/26 00:12:45;;;;;;;6.72;4.60;;;18.40;99.90;;;;;;4983651;28;20033;-77
2023/08/26 00:15:10;;;;;;;11.25;5.45;;;18.40;99.90;;;;;;4983470;28;20014;-77
2023/08/26 00:17:36;;;;;;;10.88;6.60;;;18.30;99.90;;;;;;4999780;28;20105;-77
2023/08/26 00:20:05;;;;;;;8.40;5.20;;;18.30;99.90;;;;;;4999331;28;20034;-77
2023/08/26 00:22:31;;;;;;;7.55;5.15;;;18.40;99.90;;;;;;4999986;28;20049;-77
2023/08/26 00:24:57;;;;;;;8.15;4.60;;;18.40;99.90;;;;;;4983257;28;20053;-76
2023/08/26 00:27:22;;;;;;;10.05;4.95;;;18.30;99.90;;;;;;4983229;28;20018;-76
2023/08/26 00:29:48;;;;;;;13.18;6.22;;;18.40;99.90;;;;;;4999528;28;20026;-77
2023/08/26 00:32:14;;;;;;;10.27;5.43;;;18.30;99.90;;;;;;4983047;28;20036;-77
2023/08/26 00:34:39;;;;;;;10.70;4.65;;;18.30;99.90;;;;;;4983124;28;20474;-77
2023/08/26 00:37:05;;;;;;;7.55;4.38;;;18.30;99.90;;;;;;5015558;28;20037;-77
2023/08/26 00:39:31;;;;;;;8.32;4.60;;;18.30;99.90;;;;;;4999367;28;20030;-77
2023/08/26 00:41:56;;;;;;;8.02;4.40;;;18.30;99.90;;;;;;4999340;28;20029;-77
2023/08/26 00:44:22;;;;;;;6.40;3.47;;;18.30;99.90;;;;;;4983084;28;20029;-77
2023/08/26 00:46:48;;;;;;;6.88;3.17;;;18.30;99.90;;;;;;4982813;28;20053;-77
2023/08/26 00:49:14;;;;;;;6.88;3.63;;;18.20;99.90;;;;;;4999268;28;20033;-77
2023/08/26 00:51:40;;;;;;;7.13;4.32;;;18.20;99.90;;;;;;4999371;28;20389;-77
2023/08/26 00:54:08;;;;;;;7.78;4.05;;;18.20;99.90;;;;;;4982569;28;20037;-77
2023/08/26 00:56:33;;;;;;;8.00;4.50;;;18.20;99.90;;;;;;5016524;28;20076;-82
2023/08/26 00:58:59;;;;;;;8.77;4.95;;;18.10;99.90;;;;;;4998741;28;20037;-82
2023/08/26 01:01:27;;;;;;;12.00;5.25;;;18.10;99.90;;;;;;5015284;28;20029;-82
2023/08/26 01:03:53;;;;;;;8.32;5.60;;;18.10;99.90;;;;;;4998179;28;20053;-82
2023/08/26 01:06:19;;;;;;;8.38;5.00;;;18.10;99.90;;;;;;4982692;28;20030;-82
2023/08/26 01:08:44;;;;;;;9.05;5.10;;;18.00;99.90;;;;;;4983041;28;20034;-81
2023/08/26 01:11:24;;;;;;;9.25;6.10;;;18.10;99.90;;;;;;4999263;28;20061;-82
2023/08/26 01:14:33;;;;;;;8.93;6.00;;;18.00;99.90;;;;;;4999013;28;20122;-82
2023/08/26 01:16:59;;;;;;;8.90;4.93;;;18.00;99.90;;;;;;4999136;28;20018;-77
2023/08/26 01:19:39;;;;;;;10.25;5.68;;;18.00;99.90;;;;;;4998536;28;20089;-77
2023/08/26 01:22:09;;;;;;;11.48;5.95;;;18.00;99.90;;;;;;4998384;28;20394;-77
2023/08/26 01:24:37;;;;;;;9.07;5.78;;;18.00;99.90;;;;;;4998324;28;20466;-77
2023/08/26 01:27:03;;;;;;;7.65;4.90;;;18.00;99.90;;;;;;4982198;28;20036;-77
2023/08/26 01:29:29;;;;;;;10.40;6.20;;;18.00;99.90;;;;;;4998706;28;20030;-77
2023/08/26 01:32:17;;;;;;;8.50;5.10;;;18.00;99.90;;;;;;5014447;28;20040;-77
2023/08/26 01:34:50;;;;;;;8.70;4.40;;;18.00;99.90;;;;;;4998093;28;20125;-77
2023/08/26 01:37:18;;;;;;;7.20;3.85;;;18.10;99.90;;;;;;5014471;28;20025;-79
2023/08/26 01:39:46;;;;;;;7.93;4.63;;;18.00;99.90;;;;;;4998112;28;20373;-77
2023/08/26 01:42:13;;;;;;;10.73;4.53;;;18.00;99.90;;;;;;5014316;28;20026;-76
2023/08/26 01:44:41;;;;;;;8.80;4.70;;;18.00;99.90;;;;;;4998392;28;20469;-77
2023/08/26 01:47:07;;;;;;;9.25;4.07;;;18.00;99.90;;;;;;4998122;28;20079;-77
2023/08/26 01:49:33;;;;;;;10.38;4.40;;;18.00;99.90;;;;;;5015531;28;20036;-77
2023/08/26 01:51:59;;;;;;;12.65;6.47;;;18.00;99.90;;;;;;4997816;28;20034;-78
2023/08/26 01:54:24;;;;;;;10.85;6.97;;;18.00;99.90;;;;;;5015668;28;20108;-77
2023/08/26 01:56:50;;;;;;;14.88;8.98;;;17.90;99.90;;;;;;4981708;28;20030;-77
2023/08/26 01:59:16;;;;;;;15.60;9.13;;;17.90;99.90;;;;;;4982160;28;20508;-76
2023/08/26 02:01:42;;;;;;;17.65;9.50;;;17.80;99.90;;;;;;4997942;28;20030;-77
2023/08/26 02:04:07;;;;;;;16.27;9.30;;;17.70;99.90;;;;;;4997476;28;20517;-78
2023/08/26 02:06:33;;;;;;;11.80;7.47;;;17.70;99.90;;;;;;4981397;28;20034;-77
2023/08/26 02:08:59;;;;;;;15.10;7.78;;;17.60;99.90;;;;;;4981444;28;20485;-78
2023/08/26 02:11:24;;;;;;;11.75;6.82;;;17.60;99.90;;;;;;4997712;28;20025;-79
2023/08/26 02:13:50;;;;;;;14.25;7.32;;;17.50;99.90;;;;;;4997483;28;20030;-76
2023/08/26 02:16:16;;;;;;;10.68;6.97;;;17.50;99.90;;;;;;4997047;28;20022;-77
2023/08/26 02:18:41;;;;;;;11.45;6.03;;;17.60;99.90;;;;;;4997315;28;20478;-76
2023/08/26 02:21:08;;;;;;;10.68;6.22;;;17.50;99.90;;;;;;4997419;28;20505;-76
2023/08/26 02:23:34;;;;;;;13.10;6.05;;;17.50;99.90;;;;;;4997652;28;20037;-79
2023/08/26 02:26:00;;;;;;;11.52;5.90;;;17.40;99.90;;;;;;4980858;28;20120;-78
2023/08/26 02:28:26;;;;;;;9.13;5.93;;;17.40;99.90;;;;;;5014710;28;20504;-78
2023/08/26 02:30:51;;;;;;;11.73;5.95;;;17.30;99.90;;;;;;4981247;28;20092;-77
2023/08/26 02:33:17;;;;;;;10.30;5.45;;;17.30;99.90;;;;;;4997544;28;20161;-80
2023/08/26 02:35:49;;;;;;;11.10;6.35;;;17.30;99.90;;;;;;4997262;28;20054;-78
2023/08/26 02:38:14;;;;;;;13.48;5.85;;;17.30;99.90;;;;;;4981128;28;20030;-78
2023/08/26 02:40:40;;;;;;;16.02;6.38;;;17.30;99.90;;;;;;4980675;28;20080;-78
2023/08/26 02:43:06;;;;;;;14.13;6.43;;;17.20;99.90;;;;;;4996990;28;20026;-77
2023/08/26 02:45:31;;;;;;;12.40;6.07;;;17.10;99.90;;;;;;4980635;28;20359;-80
2023/08/26 02:47:57;;;;;;;13.15;6.00;;;17.10;99.90;;;;;;4996857;28;20029;-78
2023/08/26 02:50:24;;;;;;;14.45;5.68;;;17.00;99.90;;;;;;4996806;28;20029;-78
2023/08/26 02:52:50;;;;;;;10.07;5.40;;;16.90;99.90;;;;;;4996865;28;20033;-79
2023/08/26 02:55:16;;;;;;;14.15;6.60;;;16.90;99.90;;;;;;4980540;28;20474;-78
2023/08/26 02:57:42;;;;;;;11.45;5.40;;;16.80;99.90;;;;;;4980673;28;20113;-81
2023/08/26 03:00:09;;;;;;;11.05;5.35;;;16.80;99.90;;;;;;4996821;28;20057;-80
2023/08/26 03:02:35;;;;;;;13.45;5.95;;;16.70;99.90;;;;;;4980102;28;20026;-79
2023/08/26 03:05:02;;;;;;;11.95;5.15;;;16.70;99.90;;;;;;4996780;28;20034;-78
2023/08/26 03:07:29;;;;;;;13.02;6.03;;;16.70;99.90;;;;;;4996805;28;20046;-79
2023/08/26 03:09:55;;;;;;;9.57;5.70;;;16.60;99.90;;;;;;4996579;28;20096;-77
2023/08/26 03:12:20;;;;;;;11.57;5.65;;;16.60;99.90;;;;;;4980468;28;20030;-77
2023/08/26 03:14:46;;;;;;;14.15;5.30;;;16.50;99.90;;;;;;4996635;28;20513;-78
2023/08/26 03:17:11;;;;;;;9.27;4.50;;;16.50;99.90;;;;;;4980281;28;20029;-77
2023/08/26 03:19:37;;;;;;;10.40;5.05;;;16.40;99.90;;;;;;4996267;28;20033;-78
2023/08/26 03:22:03;;;;;;;8.82;4.15;;;16.40;99.90;;;;;;4980215;28;20367;-79
2023/08/26 03:24:28;;;;;;;8.68;4.35;;;16.40;99.90;;;;;;5012681;28;20045;-79
2023/08/26 03:26:54;;;;;;;11.13;4.78;;;16.40;99.90;;;;;;4980052;28;20041;-78
2023/08/26 03:29:20;;;;;;;9.00;3.97;;;16.40;99.90;;;;;;4980075;28;20034;-79
2023/08/26 03:31:48;;;;;;;10.10;3.92;;;16.40;99.90;;;;;;4996296;28;20033;-79
2023/08/26 03:34:14;;;;;;;10.00;4.20;;;16.30;99.90;;;;;;5012471;28;20021;-78
2023/08/26 03:36:39;;;;;;;9.05;4.68;;;16.30;99.90;;;;;;4980010;28;20470;-80
2023/08/26 03:39:05;;;;;;;7.97;4.25;;;16.20;99.90;;;;;;4996198;28;20028;-82
2023/08/26 03:41:31;;;;;;;10.15;4.40;;;16.20;99.90;;;;;;4996244;28;20034;-82
2023/08/26 03:43:56;;;;;;;12.73;4.60;;;16.10;99.90;;;;;;4980664;28;20061;-82
2023/08/26 03:46:23;;;;;;;11.35;4.70;;;16.10;99.90;;;;;;4997140;28;20066;-79
2023/08/26 03:48:48;;;;;;;8.13;3.90;;;16.00;99.90;;;;;;4979739;28;20034;-82
2023/08/26 03:51:14;;;;;;;9.13;3.95;;;16.00;99.90;;;;;;5011995;28;20034;-78
2023/08/26 03:53:40;;;;;;;5.68;3.30;;;15.90;99.90;;;;;;4979757;28;20022;-78
2023/08/26 03:56:06;;;;;;;7.93;3.13;;;15.80;99.90;;;;;;4980193;28;20025;-77
2023/08/26 03:58:32;;;;;;;6.97;3.53;;;15.80;99.90;;;;;;4996188;28;20034;-78
2023/08/26 04:01:04;;;;;;;6.85;3.67;;;15.70;99.90;;;;;;4995780;28;20041;-80
2023/08/26 04:03:30;;;;;;;5.35;3.40;;;15.60;99.90;;;;;;4995649;28;20081;-78
2023/08/26 04:06:00;;;;;;;8.70;3.72;;;15.60;99.90;;;;;;5013480;28;20084;-78
2023/08/26 04:08:26;;;;;;;10.15;3.88;;;15.50;99.90;;;;;;5012078;28;20087;-78
2023/08/26 04:10:59;;;;;;;11.43;4.07;;;15.40;99.90;;;;;;4995726;28;20096;-78
2023/08/26 04:13:26;;;;;;;8.82;4.50;;;15.40;99.90;;;;;;4994296;28;20049;-78
2023/08/26 04:15:53;;;;;;;8.00;3.85;;;15.30;99.90;;;;;;4998658;28;20034;-79
2023/08/26 04:18:20;;;;;;;5.88;3.15;;;15.30;99.90;;;;;;4942643;28;20074;-78
2023/08/26 04:20:46;;;;;;;10.02;4.18;;;15.20;99.90;;;;;;4974212;28;20042;-79
2023/08/26 04:23:11;;;;;;;12.75;4.13;;;15.20;99.90;;;;;;4975689;28;20030;-78
2023/08/26 04:25:38;;;;;;;7.47;3.80;;;15.20;99.90;;;;;;4974909;28;20128;-78
2023/08/26 04:28:04;;;;;;;6.13;2.90;;;15.10;99.90;;;;;;4975877;28;20043;-80
2023/08/26 04:30:30;;;;;;;14.07;3.30;;;15.10;99.90;;;;;;4992963;28;20185;-79
2023/08/26 04:32:56;;;;;;;9.57;3.55;;;15.00;99.90;;;;;;4976231;28;20030;-80
2023/08/26 04:35:21;;;;;;;11.60;3.28;;;15.00;99.90;;;;;;4960346;28;20386;-77
2023/08/26 04:37:47;;;;;;;13.65;3.58;;;14.90;99.90;;;;;;4945002;28;20030;-80
2023/08/26 04:40:13;;;;;;;7.50;2.92;;;14.90;99.90;;;;;;4947668;28;20387;-79
2023/08/26 04:42:42;;;;;;;5.47;2.90;;;14.90;99.90;;;;;;4947693;28;20080;-79
2023/08/26 04:45:09;;;;;;;7.35;2.47;;;14.80;99.90;;;;;;4963528;28;20473;-79
2023/08/26 04:47:36;;;;;;;6.45;2.42;;;14.80;99.90;;;;;;4997103;28;20728;-79
2023/08/26 04:50:03;;;;;;;5.53;2.45;;;14.80;99.90;;;;;;4979513;28;20022;-78
2023/08/26 04:52:29;;;;;;;7.57;2.78;;;14.80;99.90;;;;;;4965619;28;20109;-78
2023/08/26 04:54:55;;;;;;;6.50;2.53;;;14.80;99.90;;;;;;5015471;28;20057;-78
2023/08/26 04:57:22;;;;;;;5.55;2.72;;;14.70;99.90;;;;;;4982680;28;20026;-79
2023/08/26 04:59:47;;;;;;;7.70;2.70;;;14.70;99.90;;;;;;4983368;28;20048;-78
2023/08/26 05:02:13;;;;;;;7.93;2.78;;;14.70;99.90;;;;;;5005784;28;20452;-78
2023/08/26 05:04:39;;;;;;;5.80;2.78;;;14.60;99.90;;;;;;5014816;28;20057;-79
2023/08/26 05:07:04;;;;;;;6.20;2.65;;;14.70;99.90;;;;;;4997244;28;20048;-81
2023/08/26 05:09:30;;;;;;;5.97;2.58;;;14.60;99.90;;;;;;4979794;28;20068;-78
2023/08/26 05:11:57;;;;;;;7.20;2.97;;;14.60;99.90;;;;;;4981080;28;20125;-80
2023/08/26 05:14:23;;;;;;;5.70;2.28;;;14.60;99.90;;;;;;4980821;28;20026;-80
2023/08/26 05:16:49;;;;;;;9.55;3.05;;;14.60;99.90;;;;;;4951862;28;20026;-81
2023/08/26 05:19:15;;;;;;;6.63;2.65;;;14.60;99.90;;;;;;4952114;28;20049;-79
2023/08/26 05:21:40;;;;;;;6.13;2.85;;;14.70;99.90;;;;;;4977600;28;20038;-79
2023/08/26 05:24:06;;;;;;;7.25;2.60;;;14.70;99.90;;;;;;4978014;28;20058;-80
2023/08/26 05:26:32;;;;;;;10.82;2.33;;;14.70;99.90;;;;;;4961704;28;20042;-79
2023/08/26 05:28:58;;;;;;;8.98;2.58;;;14.80;99.90;;;;;;4995092;28;20035;-79
2023/08/26 05:31:24;;;;;;;9.85;2.63;;;14.80;99.90;;;;;;4994468;28;20038;-79
2023/08/26 05:33:49;;;;;;;6.57;2.60;;;14.90;99.90;;;;;;4978759;28;20080;-80
2023/08/26 05:36:15;;;;;;;7.93;2.25;;;14.90;99.90;;;;;;4978832;28;20121;-81
2023/08/26 05:38:41;;;;;;;8.35;2.40;;;14.90;99.90;;;;;;4978712;28;20390;-80
2023/08/26 05:41:06;;;;;;;4.60;1.85;;;14.90;99.90;;;;;;4978951;28;20034;-78
2023/08/26 05:43:32;;;;;;;6.10;2.28;;;15.00;99.90;;;;;;4962355;28;20102;-79
2023/08/26 05:45:57;;;;;;;6.68;2.00;;;15.00;99.90;;;;;;4962973;28;20038;-80
2023/08/26 05:48:23;;;;;;;5.95;1.60;;;14.90;99.90;;;;;;4978553;28;20419;-79
2023/08/26 05:50:49;;;;;;;3.90;1.42;;;14.90;99.90;;;;;;4977268;28;20117;-79
2023/08/26 05:53:15;;;;;;;6.95;1.80;;;14.90;99.90;;;;;;4978367;28;20478;-78
2023/08/26 05:55:41;;;;;;;6.75;2.03;;;14.90;99.90;;;;;;4978368;28;20367;-78
2023/08/26 05:58:07;;;;;;;6.00;1.83;;;14.90;99.90;;;;;;4962246;28;20027;-79
2023/08/26 06:00:33;;;;;;;9.07;2.58;;;14.90;99.90;;;;;;4978111;28;20022;-79
2023/08/26 06:02:59;;;;;;;7.93;2.25;;;14.90;99.90;;;;;;4977907;28;20427;-79
2023/08/26 06:05:25;;;;;;;7.22;2.50;;;14.90;99.90;;;;;;4978179;28;20050;-80
2023/08/26 06:07:51;;;;;;;6.15;1.80;;;15.00;99.90;;;;;;4978336;28;20061;-80
2023/08/26 06:10:17;;;;;;;8.77;2.25;;;15.00;99.90;;;;;;4994296;28;20034;-79
2023/08/26 06:12:44;;;;;;;11.60;2.53;;;15.00;99.90;;;;;;4977905;28;20026;-80
2023/08/26 06:15:10;;;;;;;7.68;1.77;;;14.90;99.90;;;;;;4978095;28;20018;-79
2023/08/26 06:17:36;;;;;;;5.20;1.75;;;15.00;99.90;;;;;;4961964;28;20061;-80
2023/08/26 06:20:05;;;;;;;4.22;1.75;;;15.00;99.90;;;;;;4977787;28;20050;-79
2023/08/26 06:22:31;;;;;;;5.25;1.50;;;15.00;99.90;;;;;;4995285;28;20077;-79
2023/08/26 06:24:58;;;;;;;3.70;1.67;;;15.10;99.90;;;;;;4977844;28;20030;-82
2023/08/26 06:27:27;;;;;;;7.72;2.13;;;15.10;99.90;;;;;;4977452;28;20038;-81
2023/08/26 06:29:53;;;;;;;5.18;1.80;;;15.10;99.90;;;;;;4977773;28;20101;-79
2023/08/26 06:32:22;;;;;;;4.97;1.75;;;15.20;99.90;;;;;;4977784;28;20030;-81
2023/08/26 06:34:48;;;;;;;9.38;2.40;;;15.20;99.90;;;;;;4961599;28;20533;-82
2023/08/26 06:37:16;;;;;;;6.40;1.67;;;15.20;99.90;;;;;;4978142;28;20039;-79
2023/08/26 06:39:42;;;;;;;7.45;2.30;;;15.20;99.90;;;;;;4977769;28;20034;-79
2023/08/26 06:42:07;;;;;;;8.30;2.40;;;15.20;99.90;;;;;;4977438;28;20031;-82
2023/08/26 06:44:33;;;;;;;8.80;2.63;;;15.30;99.90;;;;;;4977851;28;20037;-80
2023/08/26 06:46:59;;;;;;;10.18;3.10;;;15.30;99.90;;;;;;4992858;28;20038;-80
2023/08/26 06:49:25;;;;;;;7.25;2.42;;;15.30;99.90;;;;;;4993603;28;20410;-80
2023/08/26 06:51:51;;;;;;;7.70;1.95;;;15.30;99.90;;;;;;4993855;28;20038;-80
2023/08/26 06:54:16;;;;;;;6.45;2.22;;;15.40;99.90;;;;;;4994773;28;20027;-81
2023/08/26 06:56:42;;;;;;;10.20;2.72;;;15.40;99.90;;;;;;4996546;28;20036;-81
2023/08/26 06:59:08;;;;;;;6.03;2.25;;;15.50;99.90;;;;;;5014930;28;20394;-81
2023/08/26 07:01:34;;;;;;;7.00;2.15;;;15.50;99.90;;;;;;4996648;28;20030;-80
2023/08/26 07:04:07;;;;;;;8.57;2.15;;;15.50;99.90;;;;;;4996544;28;20049;-79
2023/08/26 07:06:34;;;;;;;5.70;2.15;;;15.60;99.90;;;;;;4996963;28;20029;-82
2023/08/26 07:08:59;;;;;;;6.35;1.98;;;15.60;99.90;;;;;;4995960;28;20054;-80
2023/08/26 07:11:25;;;;;;;9.43;1.73;;;15.60;99.90;;;;;;4980739;28;20097;-82
2023/08/26 07:13:51;;;;;;;4.47;2.03;;;15.60;99.90;;;;;;4996924;28;20057;-81
2023/08/26 07:16:17;;;;;;;6.22;1.85;;;15.70;99.90;;;;;;4980606;28;20393;-79
2023/08/26 07:18:43;;;;;;;7.90;2.40;;;15.70;99.90;;;;;;4996454;28;20473;-81
2023/08/26 07:21:09;;;;;;;6.40;2.30;;;15.80;99.90;;;;;;4996658;28;20045;-82
2023/08/26 07:23:35;;;;;;;9.25;3.03;;;15.80;99.90;;;;;;4980344;28;20081;-81
2023/08/26 07:26:01;;;;;;;7.03;2.20;;;15.80;99.90;;;;;;4996599;28;20501;-79
2023/08/26 07:28:26;;;;;;;5.55;2.60;;;15.80;99.90;;;;;;4996552;28;20069;-80
2023/08/26 07:30:53;;;;;;;8.00;2.80;;;15.80;99.90;;;;;;4980022;28;20037;-81
2023/08/26 07:33:19;;;;;;;8.07;2.30;;;15.90;99.90;;;;;;4995664;28;20036;-80
2023/08/26 07:35:45;;;;;;;5.63;2.22;;;15.90;99.90;;;;;;4995336;28;20037;-80
2023/08/26 07:38:11;;;;;;;8.35;2.10;;;15.90;99.90;;;;;;4996841;28;20029;-80
2023/08/26 07:40:36;;;;;;;7.43;2.13;;;16.00;99.90;;;;;;4996050;28;20030;-81
2023/08/26 07:43:03;;;;;;;4.50;1.65;;;16.10;99.90;;;;;;4980345;28;20030;-84
2023/08/26 07:45:29;;;;;;;5.13;1.85;;;16.20;99.90;;;;;;4996375;28;20026;-79
2023/08/26 07:48:01;;;;;;;6.10;2.00;;;16.30;99.90;;;;;;4998090;28;20394;-83
2023/08/26 07:50:26;;;;;;;5.00;1.75;;;16.40;99.90;;;;;;4968720;28;20037;-80
2023/08/26 07:52:53;;;;;;;5.65;1.70;;;16.50;99.90;;;;;;4967643;28;20030;-82
2023/08/26 07:55:19;;;;;;;12.20;1.90;;;16.70;99.90;;;;;;4996359;28;20022;-88
2023/08/26 07:57:44;;;;;;;7.80;1.50;;;16.80;99.90;;;;;;4999953;28;20029;-82
2023/08/26 08:00:11;;;;;;;5.00;1.70;;;17.00;99.90;;;;;;4992437;28;20038;-86
2023/08/26 08:02:36;;;;;;;5.63;1.50;;;17.10;99.90;;;;;;4986176;28;20096;-85
2023/08/26 08:05:02;;;;;;;7.60;1.45;;;17.20;99.90;;;;;;4996709;28;20439;-86
2023/08/26 08:07:28;;;;;;;7.82;1.52;;;17.30;99.90;;;;;;4981379;28;20046;-87
2023/08/26 08:09:55;;;;;;;8.85;1.65;;;17.40;99.90;;;;;;4977070;28;20387;-83
2023/08/26 08:12:20;;;;;;;4.15;1.15;;;17.40;99.60;;;;;;4999498;28;20026;-86
2023/08/26 08:14:46;;;;;;;3.42;1.15;;;17.40;99.70;;;;;;4989455;28;20037;-88
2023/08/26 08:17:13;;;;;;;7.85;1.48;;;17.50;99.60;;;;;;5003439;28;20029;-84
2023/08/26 08:19:39;;;;;;;5.18;1.77;;;17.50;99.10;;;;;;5001280;28;20030;-84
2023/08/26 08:22:05;;;;;;;6.55;1.70;;;17.40;99.00;;;;;;5000341;28;20112;-84
2023/08/26 08:24:32;;;;;;;6.10;1.90;;;17.50;98.40;;;;;;5016913;28;20036;-85
2023/08/26 08:26:57;;;;;;;7.72;1.90;;;17.50;98.50;;;;;;5017963;28;20054;-85
2023/08/26 08:29:23;;;;;;;6.30;1.70;;;17.60;98.70;;;;;;4983993;28;20053;-86
2023/08/26 08:31:49;;;;;;;6.20;1.58;;;17.60;98.60;;;;;;4984434;28;20030;-87
2023/08/26 08:34:14;;;;;;;8.02;2.08;;;17.70;98.50;;;;;;5000989;28;20551;-85
2023/08/26 08:36:40;;;;;;;6.32;1.35;;;17.70;98.40;;;;;;5000185;28;20470;-86
2023/08/26 08:39:06;;;;;;;7.75;1.65;;;17.80;98.30;;;;;;4983640;28;20056;-89
2023/08/26 08:41:34;;;;;;;5.40;1.77;;;17.80;98.00;;;;;;5000083;28;20065;-86
2023/08/26 08:44:07;;;;;;;4.47;1.50;;;17.80;97.90;;;;;;5018221;28;20054;-84
2023/08/26 08:46:33;;;;;;;4.47;1.20;;;17.90;97.80;;;;;;5000405;28;20035;-83
2023/08/26 08:49:01;;;;;;;5.88;1.20;;;18.00;97.80;;;;;;4999847;28;20359;-88
2023/08/26 08:51:28;;;;;;;6.63;1.15;;;18.00;97.90;;;;;;5018325;28;20024;-87
2023/08/26 08:53:58;;;;;;;8.18;1.45;;;18.10;97.50;;;;;;5000376;28;20557;-88
2023/08/26 08:56:24;;;;;;;3.72;1.10;;;18.20;97.30;;;;;;5000388;28;20026;-88
2023/08/26 08:58:51;;;;;;;3.50;1.10;;;18.30;97.10;;;;;;4983347;28;20037;-83
2023/08/26 09:01:23;;;;;;;4.30;1.40;;;18.30;96.80;;;;;;4999583;28;20028;-86
2023/08/26 09:03:49;;;;;;;5.10;1.45;;;18.50;96.70;;;;;;4999833;28;20050;-83
2023/08/26 09:06:17;;;;;;;7.53;1.48;;;18.60;96.70;;;;;;4983120;28;20030;-86
2023/08/26 09:08:45;;;;;;;6.47;1.08;;;18.80;96.20;;;;;;4999344;28;20029;-87
2023/08/26 09:11:12;;;;;;;6.18;1.20;;;18.80;95.90;;;;;;4999596;28;20033;-86
2023/08/26 09:13:38;;;;;;;6.57;1.55;;;18.90;95.80;;;;;;4999202;28;20022;-84
2023/08/26 09:16:07;;;;;;;5.05;1.02;;;19.00;95.40;;;;;;5016555;28;20102;-85
2023/08/26 09:18:39;;;;;;;5.53;1.00;;;19.10;95.00;;;;;;4983130;28;20028;-87
2023/08/26 09:21:09;;;;;;;4.78;1.00;;;19.30;94.70;;;;;;4997866;28;20106;-84
2023/08/26 09:23:43;;;;;;;6.40;1.30;;;19.40;94.40;;;;;;4982730;28;20041;-84
2023/08/26 09:26:09;;;;;;;;;;;19.40;94.30;;;;;;4999308;28;20477;-80
2023/08/26 09:28:45;;;;;;;5.85;0.80;;;19.50;93.70;;;;;;5015595;28;20000;-84
2023/08/26 09:31:11;;;;;;;3.72;0.93;;;19.50;93.30;;;;;;5000272;28;20108;-85
2023/08/26 09:33:37;;;;;;;5.93;1.02;;;19.70;92.90;;;;;;4998587;28;20029;-84
2023/08/26 09:36:04;;;;;;;4.35;0.90;;;19.90;92.90;;;;;;4997178;28;20029;-85
2023/08/26 09:38:49;;;;;;;5.18;0.90;;;19.90;92.40;;;;;;4998954;28;20097;-84
2023/08/26 09:41:23;;;;;;;3.13;0.95;;;19.90;92.00;;;;;;4998564;28;20018;-83
2023/08/26 09:43:49;;;;;;;5.15;0.70;;;20.00;91.80;;;;;;5015795;28;20087;-85
2023/08/26 09:46:19;;;;;;;4.20;1.15;;;20.00;91.30;;;;;;4997878;28;20030;-84
2023/08/26 09:48:46;;;;;;;5.07;0.80;;;20.00;90.90;;;;;;4998411;28;20053;-87
2023/08/26 09:51:27;;;;;;;4.22;0.90;;;20.00;90.60;;;;;;5006474;28;20025;-85
2023/08/26 09:53:57;;;;;;;3.50;0.98;;;19.90;90.40;;;;;;5035090;28;20022;-82
2023/08/26 09:56:25;;;;;;;4.93;0.60;;;19.80;89.80;;;;;;5034271;28;20033;-85
2023/08/26 09:58:53;;;;;;;4.03;0.70;;;19.70;90.10;;;;;;5034547;28;20041;-86
2023/08/26 10:01:23;;;;;;;2.22;0.65;;;19.60;90.10;;;;;;5035003;28;20025;-85
2023/08/26 10:03:53;;;;;;;3.42;0.75;;;19.50;90.30;;;;;;5017721;28;20110;-88
2023/08/26 10:06:22;;;;;;;4.25;0.90;;;19.60;90.50;;;;;;5034369;28;20025;-83
2023/08/26 10:08:54;;;;;;;6.00;0.90;;;19.70;90.70;;;;;;5034013;28;20032;-83
2023/08/26 10:11:21;;;;;;;4.55;0.95;;;19.90;90.90;;;;;;5034052;28;20021;-86
2023/08/26 10:13:50;;;;;;;4.45;0.60;;;20.10;90.80;;;;;;5033726;28;20116;-82
2023/08/26 10:16:23;;;;;;;3.63;0.80;;;20.10;90.50;;;;;;5034912;28;20028;-83
2023/08/26 10:18:54;;;;;;;4.80;0.80;;;20.40;90.40;;;;;;5031485;28;20022;-86
2023/08/26 10:21:21;;;;;;;6.25;0.93;;;20.60;90.10;;;;;;4991931;28;20014;-87
2023/08/26 10:23:50;;;;;;;3.72;0.82;;;20.70;89.40;;;;;;4997135;28;20466;-85
2023/08/26 10:26:18;;;;;;;4.85;0.70;;;21.00;89.30;;;;;;4980337;28;20026;-84
2023/08/26 10:28:45;;;;;;;2.33;0.70;;;21.30;89.30;;;;;;4997171;28;20022;-80
2023/08/26 10:31:13;;;;;;;2.88;0.68;;;21.70;87.00;;;;;;5014411;28;20022;-82
2023/08/26 10:34:08;;;;;;;3.75;0.63;;;22.10;85.30;;;;;;4996632;28;20022;-80
2023/08/26 10:36:35;;;;;;;2.95;0.50;;;22.40;84.80;;;;;;4994319;28;20033;-81
2023/08/26 10:39:01;;;;;;;1.40;0.40;;;23.00;85.20;;;;;;5015064;28;20028;-80
2023/08/26 10:41:26;;;;;;;1.63;0.60;;;23.70;84.10;;;;;;5013763;28;20030;-84
2023/08/26 10:44:01;;;;;;;5.32;0.70;;;23.80;81.50;;;;;;5015118;28;20033;-80
2023/08/26 10:46:56;;;;;;;3.80;0.60;;;23.90;80.10;;;;;;4996913;28;20025;-80
2023/08/26 10:49:28;;;;;;;3.47;0.50;;;24.40;79.60;;;;;;5014618;28;20026;-81
2023/08/26 10:52:29;;;;;;;2.08;0.50;;;24.60;78.10;;;;;;4996821;28;20053;-80
2023/08/26 10:54:55;;;;;;;3.72;0.60;;;25.20;77.20;;;;;;5014337;28;20025;-77
2023/08/26 10:57:20;;;;;;;2.03;0.47;;;25.50;74.20;;;;;;4996981;28;20034;-79
2023/08/26 10:59:47;;;;;;;1.38;0.47;;;25.90;73.70;;;;;;4996612;28;20034;-81
2023/08/26 11:02:17;;;;;;;1.38;0.38;;;26.30;72.40;;;;;;4996748;28;20037;-79
2023/08/26 11:04:46;;;;;;;1.88;0.60;;;26.80;70.40;;;;;;4980646;28;20064;-79
2023/08/26 11:07:19;;;;;;;1.40;0.28;;;27.20;69.10;;;;;;5011884;28;20045;-85
2023/08/26 11:09:48;;;;;;;;;;;27.60;66.90;;;;;;4997398;28;20034;-81
2023/08/26 11:12:27;;;;;;;2.58;0.68;;;27.80;66.40;;;;;;5013164;28;19920;-79
2023/08/26 11:15:08;;;;;;;2.97;0.40;;;27.80;63.70;;;;;;4997110;28;20026;-77
2023/08/26 11:17:36;;;;;;;4.47;0.60;;;27.50;62.90;;;;;;4996285;28;20116;-85
2023/08/26 11:20:04;;;;;;;1.77;0.40;;;27.50;61.80;;;;;;5014005;28;20041;-78
2023/08/26 11:22:30;;;;;;;2.05;0.40;;;27.90;62.00;;;;;;4997051;28;20036;-78
2023/08/26 11:24:58;;;;;;;1.02;0.45;;;28.10;59.30;;;;;;4980324;28;20034;-80
2023/08/26 11:27:24;;;;;;;2.47;0.40;;;28.20;59.60;;;;;;4996299;28;20033;-83
2023/08/26 11:29:55;;;;;;;1.75;0.38;;;28.50;59.50;;;;;;4996245;28;20421;-80
2023/08/26 11:32:21;;;;;;;2.10;0.30;;;28.40;58.50;;;;;;4996023;28;20024;-81
2023/08/26 11:34:47;;;;;;;1.20;0.43;;;28.40;58.50;;;;;;5013746;28;20533;-79
2023/08/26 11:37:18;;;;;;;1.80;0.32;;;28.10;55.50;;;;;;4996035;28;20030;-82
2023/08/26 11:39:44;;;;;;;2.80;0.43;;;28.00;56.10;;;;;;5015226;28;20057;-84
2023/08/26 11:42:15;;;;;;;2.42;0.43;;;28.20;56.30;;;;;;5013556;28;20053;-84
2023/08/26 11:44:47;;;;;;;1.40;0.40;;;28.60;57.30;;;;;;4996360;28;20433;-83
2023/08/26 11:47:16;;;;;;;1.88;0.30;;;29.10;57.20;;;;;;4997019;28;20030;-83
2023/08/26 11:49:43;;;;;;;1.63;0.30;;;29.30;55.20;;;;;;4997650;28;20065;-84
2023/08/26 11:52:09;;;;;;;3.40;0.40;;;29.30;54.60;;;;;;4995804;28;20022;-80
2023/08/26 11:54:35;;;;;;;1.90;0.40;;;29.20;53.90;;;;;;4996390;28;20032;-81
2023/08/26 11:57:01;;;;;;;2.92;0.60;;;29.10;53.50;;;;;;4998186;28;20033;-80
2023/08/26 11:59:42;;;;;;;2.08;0.40;;;29.20;53.70;;;;;;4996300;28;20026;-80
2023/08/26 12:02:24;;;;;;;2.95;0.45;;;29.30;54.00;;;;;;5013511;28;20026;-79
2023/08/26 12:04:59;;;;;;;1.00;0.30;;;29.60;54.10;;;;;;5013283;28;20049;-82
2023/08/26 12:07:26;;;;;;;1.60;0.47;;;30.00;53.20;;;;;;4995772;28;20042;-80
2023/08/26 12:10:08;;;;;;;2.80;0.45;;;30.30;52.60;;;;;;4995612;28;20064;-84
2023/08/26 12:12:38;;;;;;;1.75;0.40;;;30.60;51.70;;;;;;5013007;28;20036;-81
2023/08/26 12:15:15;;;;;;;1.52;0.32;;;30.60;51.40;;;;;;4995752;28;20032;-79
2023/08/26 12:17:55;;;;;;;1.70;0.35;;;30.40;51.00;;;;;;5013206;28;20026;-79
2023/08/26 12:20:24;;;;;;;2.55;0.40;;;30.20;50.50;;;;;;4995621;28;20482;-79
2023/08/26 12:23:09;;;;;;;0.93;0.30;;;29.90;50.50;;;;;;5012223;28;20143;-81
2023/08/26 12:25:37;;;;;;;1.90;0.35;;;30.00;51.10;;;;;;5013188;28;20041;-78
2023/08/26 12:28:18;;;;;;;2.75;0.30;;;30.50;51.30;;;;;;4995776;28;20030;-79
2023/08/26 12:30:47;;;;;;;1.73;0.30;;;30.90;50.70;;;;;;4996746;28;20497;-82
2023/08/26 12:33:14;;;;;;;1.90;0.20;;;31.30;50.00;;;;;;4996653;28;20080;-80
2023/08/26 12:35:41;;;;;;;1.60;0.20;;;31.20;49.10;;;;;;5013279;28;20022;-82
2023/08/26 12:38:07;;;;;;;2.28;0.40;;;30.90;48.90;;;;;;4995578;28;20390;-79
2023/08/26 12:40:36;;;;;;;1.20;0.30;;;30.80;49.90;;;;;;4995688;28;20025;-82
2023/08/26 12:43:06;;;;;;;3.00;0.60;;;30.90;49.60;;;;;;4995269;28;20022;-80
2023/08/26 12:45:35;;;;;;;3.55;0.40;;;30.80;49.20;;;;;;4995489;28;20057;-83
2023/08/26 12:48:02;;;;;;;1.58;0.40;;;30.70;49.20;;;;;;5013108;28;20026;-81